sensor_id;sensor_type;location;lat;lon;timestamp;pressure;altitude;pressure_sealevel;temperature;humidity
37304;BME280;23188;51.188;16.374;2022-10-31T00:01:51;100537.69;;;13.38;100.00
37304;BME280;23188;51.188;16.374;2022-10-31T00:10:18;100545.75;;;13.33;100.00
37304;BME280;23188;51.188;16.374;2022-10-31T00:14:19;100541.39;;;13.32;100.00
37304;BME280;23188;51.188;16.374;2022-10-31T00:18:26;100542.75;;;13.16;100.00
37304;BME280;23188;51.188;16.374;2022-10-31T00:22:27;100548.38;;;13.13;100.00
37304;BME280;23188;51.188;16.374;2022-10-31T00:26:31;100546.73;;;13.06;100.00
37304;BME280;23188;51.188;16.374;2022-10-31T00:30:32;100553.13;;;12.99;100.00
37304;BME280;23188;51.188;16.374;2022-10-31T00:34:34;100556.78;;;12.98;100.00
37304;BME280;23188;51.188;16.374;2022-10-31T00:38:44;100554.11;;;12.98;100.00
37304;BME280;23188;51.188;16.374;2022-10-31T00:42:46;100556.91;;;12.97;100.00
37304;BME280;23188;51.188;16.374;2022-10-31T00:46:47;100553.80;;;12.92;100.00
37304;BME280;23188;51.188;16.374;2022-10-31T00:50:48;100553.84;;;12.86;100.00
37304;BME280;23188;51.188;16.374;2022-10-31T00:54:49;100559.73;;;12.80;100.00
37304;BME280;23188;51.188;16.374;2022-10-31T00:58:51;100564.52;;;12.86;100.00
37304;BME280;23188;51.188;16.374;2022-10-31T01:02:52;100569.31;;;12.92;100.00
37304;BME280;23188;51.188;16.374;2022-10-31T01:06:59;100560.95;;;12.91;100.00
37304;BME280;23188;51.188;16.374;2022-10-31T01:11:04;100564.59;;;12.75;100.00
37304;BME280;23188;51.188;16.374;2022-10-31T01:15:15;100567.81;;;12.47;100.00
37304;BME280;23188;51.188;16.374;2022-10-31T01:19:18;100567.46;;;12.31;100.00
37304;BME280;23188;51.188;16.374;2022-10-31T01:23:20;100571.94;;;12.30;100.00
37304;BME280;23188;51.188;16.374;2022-10-31T01:27:22;100573.57;;;12.42;100.00
37304;BME280;23188;51.188;16.374;2022-10-31T01:31:27;100569.77;;;12.45;100.00
37304;BME280;23188;51.188;16.374;2022-10-31T01:35:35;100569.66;;;12.47;100.00
37304;BME280;23188;51.188;16.374;2022-10-31T01:39:50;100564.33;;;12.47;100.00
37304;BME280;23188;51.188;16.374;2022-10-31T01:48:30;100566.96;;;12.52;100.00
37304;BME280;23188;51.188;16.374;2022-10-31T01:52:38;100574.38;;;12.49;100.00
37304;BME280;23188;51.188;16.374;2022-10-31T01:56:58;100567.05;;;12.35;100.00
37304;BME280;23188;51.188;16.374;2022-10-31T02:01:01;100570.48;;;12.32;100.00
37304;BME280;23188;51.188;16.374;2022-10-31T02:05:06;100562.86;;;12.27;100.00
37304;BME280;23188;51.188;16.374;2022-10-31T02:09:13;100560.20;;;12.27;100.00
37304;BME280;23188;51.188;16.374;2022-10-31T02:13:15;100567.39;;;12.21;100.00
37304;BME280;23188;51.188;16.374;2022-10-31T02:17:17;100559.42;;;12.15;100.00
37304;BME280;23188;51.188;16.374;2022-10-31T02:30:41;100557.47;;;11.84;100.00
37304;BME280;23188;51.188;16.374;2022-10-31T02:35:22;100558.90;;;11.89;100.00
37304;BME280;23188;51.188;16.374;2022-10-31T02:39:28;100563.95;;;11.97;100.00
37304;BME280;23188;51.188;16.374;2022-10-31T02:43:38;100562.73;;;12.07;100.00
37304;BME280;23188;51.188;16.374;2022-10-31T02:47:44;100569.48;;;12.11;100.00
37304;BME280;23188;51.188;16.374;2022-10-31T02:51:46;100570.22;;;12.08;100.00
37304;BME280;23188;51.188;16.374;2022-10-31T02:56:18;100570.98;;;12.04;100.00
37304;BME280;23188;51.188;16.374;2022-10-31T03:00:20;100575.09;;;11.97;100.00
37304;BME280;23188;51.188;16.374;2022-10-31T03:04:37;100575.75;;;11.89;100.00
37304;BME280;23188;51.188;16.374;2022-10-31T03:08:55;100590.70;;;11.69;100.00
37304;BME280;23188;51.188;16.374;2022-10-31T03:17:38;100599.02;;;11.32;100.00
37304;BME280;23188;51.188;16.374;2022-10-31T03:21:44;100605.81;;;11.30;100.00
37304;BME280;23188;51.188;16.374;2022-10-31T03:25:51;100603.98;;;11.42;100.00
37304;BME280;23188;51.188;16.374;2022-10-31T03:30:10;100604.45;;;11.53;100.00
37304;BME280;23188;51.188;16.374;2022-10-31T03:34:12;100604.70;;;11.50;100.00
37304;BME280;23188;51.188;16.374;2022-10-31T03:38:22;100603.73;;;11.45;100.00
37304;BME280;23188;51.188;16.374;2022-10-31T03:42:35;100616.94;;;11.35;100.00
37304;BME280;23188;51.188;16.374;2022-10-31T03:46:58;100614.13;;;11.42;100.00
37304;BME280;23188;51.188;16.374;2022-10-31T03:51:25;100611.11;;;11.47;100.00
37304;BME280;23188;51.188;16.374;2022-10-31T03:55:56;100610.70;;;11.57;100.00
37304;BME280;23188;51.188;16.374;2022-10-31T04:00:04;100612.75;;;11.65;100.00
37304;BME280;23188;51.188;16.374;2022-10-31T04:04:10;100613.72;;;11.70;100.00
37304;BME280;23188;51.188;16.374;2022-10-31T04:08:15;100616.38;;;11.70;100.00
37304;BME280;23188;51.188;16.374;2022-10-31T04:12:19;100621.83;;;11.68;100.00
37304;BME280;23188;51.188;16.374;2022-10-31T04:16:21;100618.94;;;11.66;100.00
37304;BME280;23188;51.188;16.374;2022-10-31T04:20:41;100619.67;;;11.62;100.00
37304;BME280;23188;51.188;16.374;2022-10-31T04:24:42;100612.64;;;11.67;100.00
37304;BME280;23188;51.188;16.374;2022-10-31T04:28:46;100614.95;;;11.66;100.00
37304;BME280;23188;51.188;16.374;2022-10-31T04:32:47;100613.11;;;11.66;100.00
37304;BME280;23188;51.188;16.374;2022-10-31T04:36:48;100611.31;;;11.67;100.00
37304;BME280;23188;51.188;16.374;2022-10-31T04:40:50;100615.20;;;11.57;100.00
37304;BME280;23188;51.188;16.374;2022-10-31T04:44:51;100625.75;;;11.53;100.00
37304;BME280;23188;51.188;16.374;2022-10-31T04:48:52;100616.07;;;11.52;100.00
37304;BME280;23188;51.188;16.374;2022-10-31T04:53:06;100621.62;;;11.49;100.00
37304;BME280;23188;51.188;16.374;2022-10-31T04:57:07;100633.03;;;11.45;100.00
37304;BME280;23188;51.188;16.374;2022-10-31T05:01:09;100627.34;;;11.38;100.00
37304;BME280;23188;51.188;16.374;2022-10-31T05:05:11;100621.06;;;11.22;100.00
37304;BME280;23188;51.188;16.374;2022-10-31T05:09:12;100636.31;;;11.14;100.00
37304;BME280;23188;51.188;16.374;2022-10-31T05:13:15;100640.30;;;11.09;100.00
37304;BME280;23188;51.188;16.374;2022-10-31T05:17:16;100634.27;;;11.12;100.00
37304;BME280;23188;51.188;16.374;2022-10-31T05:21:17;100634.59;;;11.19;100.00
37304;BME280;23188;51.188;16.374;2022-10-31T05:25:20;100635.11;;;11.24;100.00
37304;BME280;23188;51.188;16.374;2022-10-31T05:29:29;100640.91;;;11.35;100.00
37304;BME280;23188;51.188;16.374;2022-10-31T05:33:32;100643.80;;;11.49;100.00
37304;BME280;23188;51.188;16.374;2022-10-31T05:37:34;100649.84;;;11.63;100.00
37304;BME280;23188;51.188;16.374;2022-10-31T05:41:37;100642.78;;;11.73;100.00
37304;BME280;23188;51.188;16.374;2022-10-31T05:45:38;100640.31;;;11.87;100.00
37304;BME280;23188;51.188;16.374;2022-10-31T05:49:39;100647.81;;;11.99;100.00
37304;BME280;23188;51.188;16.374;2022-10-31T05:53:40;100656.16;;;12.06;100.00
37304;BME280;23188;51.188;16.374;2022-10-31T05:57:41;100651.89;;;12.14;100.00
37304;BME280;23188;51.188;16.374;2022-10-31T06:01:43;100659.16;;;12.18;100.00
37304;BME280;23188;51.188;16.374;2022-10-31T06:05:44;100656.48;;;12.24;100.00
37304;BME280;23188;51.188;16.374;2022-10-31T06:09:45;100660.05;;;12.34;100.00
37304;BME280;23188;51.188;16.374;2022-10-31T06:13:46;100659.30;;;12.43;100.00
37304;BME280;23188;51.188;16.374;2022-10-31T06:22:04;100662.82;;;12.65;100.00
37304;BME280;23188;51.188;16.374;2022-10-31T06:30:39;100669.17;;;12.80;100.00
37304;BME280;23188;51.188;16.374;2022-10-31T06:34:41;100675.61;;;12.77;100.00
37304;BME280;23188;51.188;16.374;2022-10-31T06:38:43;100681.63;;;12.85;100.00
37304;BME280;23188;51.188;16.374;2022-10-31T06:42:45;100686.46;;;13.07;100.00
37304;BME280;23188;51.188;16.374;2022-10-31T06:46:47;100686.20;;;13.25;100.00
37304;BME280;23188;51.188;16.374;2022-10-31T06:50:49;100692.18;;;13.39;100.00
37304;BME280;23188;51.188;16.374;2022-10-31T06:54:50;100684.08;;;13.50;100.00
37304;BME280;23188;51.188;16.374;2022-10-31T06:58:52;100695.39;;;13.64;100.00
37304;BME280;23188;51.188;16.374;2022-10-31T07:03:01;100696.20;;;13.80;100.00
37304;BME280;23188;51.188;16.374;2022-10-31T07:07:04;100701.22;;;13.89;100.00
37304;BME280;23188;51.188;16.374;2022-10-31T07:11:06;100701.99;;;13.95;100.00
37304;BME280;23188;51.188;16.374;2022-10-31T07:15:08;100697.17;;;14.04;100.00
37304;BME280;23188;51.188;16.374;2022-10-31T07:19:10;100694.50;;;14.14;100.00
37304;BME280;23188;51.188;16.374;2022-10-31T07:23:12;100710.43;;;14.16;100.00
37304;BME280;23188;51.188;16.374;2022-10-31T07:27:14;100706.78;;;14.26;100.00
37304;BME280;23188;51.188;16.374;2022-10-31T07:31:18;100717.75;;;14.43;100.00
37304;BME280;23188;51.188;16.374;2022-10-31T07:35:23;100712.32;;;14.68;100.00
37304;BME280;23188;51.188;16.374;2022-10-31T07:39:28;100718.95;;;14.94;100.00
37304;BME280;23188;51.188;16.374;2022-10-31T07:43:29;100719.77;;;15.14;100.00
37304;BME280;23188;51.188;16.374;2022-10-31T07:51:42;100727.63;;;15.63;100.00
37304;BME280;23188;51.188;16.374;2022-10-31T08:00:22;100725.84;;;16.10;100.00
37304;BME280;23188;51.188;16.374;2022-10-31T08:04:24;100723.91;;;16.34;100.00
37304;BME280;23188;51.188;16.374;2022-10-31T08:08:26;100724.41;;;16.52;100.00
37304;BME280;23188;51.188;16.374;2022-10-31T08:12:29;100731.08;;;16.66;100.00
37304;BME280;23188;51.188;16.374;2022-10-31T08:16:33;100728.67;;;16.81;100.00
37304;BME280;23188;51.188;16.374;2022-10-31T08:20:34;100726.77;;;16.95;99.00
37304;BME280;23188;51.188;16.374;2022-10-31T08:33:52;100729.64;;;17.20;97.15
37304;BME280;23188;51.188;16.374;2022-10-31T08:37:55;100729.17;;;17.25;98.79
37304;BME280;23188;51.188;16.374;2022-10-31T08:41:57;100734.11;;;17.38;99.32
37304;BME280;23188;51.188;16.374;2022-10-31T08:45:58;100735.03;;;17.55;98.48
37304;BME280;23188;51.188;16.374;2022-10-31T08:49:59;100728.56;;;17.70;99.03
37304;BME280;23188;51.188;16.374;2022-10-31T08:54:00;100730.59;;;17.76;98.01
37304;BME280;23188;51.188;16.374;2022-10-31T08:58:03;100724.41;;;17.84;97.56
37304;BME280;23188;51.188;16.374;2022-10-31T09:02:14;100729.69;;;18.02;96.06
37304;BME280;23188;51.188;16.374;2022-10-31T09:06:15;100731.08;;;18.19;93.85
37304;BME280;23188;51.188;16.374;2022-10-31T09:10:17;100729.92;;;18.34;95.88
37304;BME280;23188;51.188;16.374;2022-10-31T09:14:18;100723.70;;;18.46;96.16
37304;BME280;23188;51.188;16.374;2022-10-31T09:18:21;100729.45;;;18.51;91.03
37304;BME280;23188;51.188;16.374;2022-10-31T09:22:23;100726.94;;;18.62;90.36
37304;BME280;23188;51.188;16.374;2022-10-31T09:26:24;100726.41;;;18.62;89.04
37304;BME280;23188;51.188;16.374;2022-10-31T09:30:27;100728.45;;;18.68;91.55
37304;BME280;23188;51.188;16.374;2022-10-31T09:34:32;100728.45;;;18.68;88.01
37304;BME280;23188;51.188;16.374;2022-10-31T09:38:34;100730.80;;;18.76;87.95
37304;BME280;23188;51.188;16.374;2022-10-31T09:51:19;100725.42;;;19.09;89.42
37304;BME280;23188;51.188;16.374;2022-10-31T09:55:47;100717.66;;;19.10;84.33
37304;BME280;23188;51.188;16.374;2022-10-31T09:59:49;100718.28;;;19.24;85.63
37304;BME280;23188;51.188;16.374;2022-10-31T10:03:53;100723.66;;;19.37;88.00
37304;BME280;23188;51.188;16.374;2022-10-31T10:08:07;100725.30;;;19.50;86.89
37304;BME280;23188;51.188;16.374;2022-10-31T10:48:21;100727.48;;;20.69;84.34
37304;BME280;23188;51.188;16.374;2022-10-31T10:52:31;100728.06;;;20.60;80.86
37304;BME280;23188;51.188;16.374;2022-10-31T11:00:58;100720.27;;;20.65;82.29
37304;BME280;23188;51.188;16.374;2022-10-31T11:05:01;100716.22;;;20.65;84.00
37304;BME280;23188;51.188;16.374;2022-10-31T11:09:09;100717.53;;;20.69;84.13
37304;BME280;23188;51.188;16.374;2022-10-31T11:17:31;100714.09;;;20.76;85.20
37304;BME280;23188;51.188;16.374;2022-10-31T11:21:34;100720.52;;;20.75;81.20
37304;BME280;23188;51.188;16.374;2022-10-31T11:25:37;100714.74;;;20.78;82.13
37304;BME280;23188;51.188;16.374;2022-10-31T11:29:38;100715.28;;;20.73;83.04
37304;BME280;23188;51.188;16.374;2022-10-31T11:33:49;100710.36;;;20.77;82.87
37304;BME280;23188;51.188;16.374;2022-10-31T11:37:56;100707.95;;;20.86;85.01
37304;BME280;23188;51.188;16.374;2022-10-31T11:42:01;100715.91;;;20.83;83.16
37304;BME280;23188;51.188;16.374;2022-10-31T11:46:11;100704.07;;;20.85;82.05
37304;BME280;23188;51.188;16.374;2022-10-31T11:50:32;100704.55;;;20.88;84.42
37304;BME280;23188;51.188;16.374;2022-10-31T11:59:12;100704.60;;;20.84;84.46
37304;BME280;23188;51.188;16.374;2022-10-31T12:03:28;100704.77;;;20.82;83.82
37304;BME280;23188;51.188;16.374;2022-10-31T12:07:32;100701.48;;;20.91;85.94
37304;BME280;23188;51.188;16.374;2022-10-31T12:16:02;100685.30;;;20.87;83.84
37304;BME280;23188;51.188;16.374;2022-10-31T12:24:29;100682.40;;;20.89;86.28
37304;BME280;23188;51.188;16.374;2022-10-31T12:28:37;100677.14;;;20.91;86.43
37304;BME280;23188;51.188;16.374;2022-10-31T12:41:50;100665.73;;;21.00;84.43
37304;BME280;23188;51.188;16.374;2022-10-31T13:00:05;100650.16;;;21.02;86.52
37304;BME280;23188;51.188;16.374;2022-10-31T13:08:55;100642.42;;;20.84;87.38
37304;BME280;23188;51.188;16.374;2022-10-31T13:13:04;100636.55;;;20.76;87.61
37304;BME280;23188;51.188;16.374;2022-10-31T13:17:15;100640.22;;;20.83;87.30
37304;BME280;23188;51.188;16.374;2022-10-31T13:25:44;100628.05;;;20.98;87.14
37304;BME280;23188;51.188;16.374;2022-10-31T13:30:15;100622.69;;;21.09;86.64
37304;BME280;23188;51.188;16.374;2022-10-31T13:34:49;100623.81;;;21.15;85.40
37304;BME280;23188;51.188;16.374;2022-10-31T13:48:00;100618.91;;;21.30;87.28
37304;BME280;23188;51.188;16.374;2022-10-31T13:52:14;100618.11;;;21.25;87.63
37304;BME280;23188;51.188;16.374;2022-10-31T14:00:30;100612.19;;;21.10;88.26
37304;BME280;23188;51.188;16.374;2022-10-31T14:04:43;100608.98;;;21.11;88.89
37304;BME280;23188;51.188;16.374;2022-10-31T14:08:56;100612.58;;;21.22;89.39
37304;BME280;23188;51.188;16.374;2022-10-31T14:17:19;100604.29;;;21.35;88.19
37304;BME280;23188;51.188;16.374;2022-10-31T14:21:28;100609.20;;;21.35;88.31
37304;BME280;23188;51.188;16.374;2022-10-31T14:25:34;100609.91;;;21.33;87.72
37304;BME280;23188;51.188;16.374;2022-10-31T14:34:33;100605.64;;;21.35;87.33
37304;BME280;23188;51.188;16.374;2022-10-31T14:48:01;100601.25;;;21.08;87.17
37304;BME280;23188;51.188;16.374;2022-10-31T14:52:08;100595.92;;;21.00;87.58
37304;BME280;23188;51.188;16.374;2022-10-31T14:56:24;100597.86;;;20.95;86.89
37304;BME280;23188;51.188;16.374;2022-10-31T15:04:58;100590.67;;;20.68;86.79
37304;BME280;23188;51.188;16.374;2022-10-31T15:09:00;100588.28;;;20.54;86.80
37304;BME280;23188;51.188;16.374;2022-10-31T15:17:26;100589.44;;;20.21;86.96
37304;BME280;23188;51.188;16.374;2022-10-31T15:21:30;100598.86;;;20.02;87.25
37304;BME280;23188;51.188;16.374;2022-10-31T15:25:37;100592.23;;;19.81;87.58
37304;BME280;23188;51.188;16.374;2022-10-31T15:29:56;100599.63;;;19.60;88.16
37304;BME280;23188;51.188;16.374;2022-10-31T15:38:16;100601.99;;;19.23;87.89
37304;BME280;23188;51.188;16.374;2022-10-31T15:42:28;100595.17;;;19.04;88.49
37304;BME280;23188;51.188;16.374;2022-10-31T15:46:32;100595.34;;;18.86;89.14
37304;BME280;23188;51.188;16.374;2022-10-31T15:50:47;100595.09;;;18.68;89.09
37304;BME280;23188;51.188;16.374;2022-10-31T15:54:55;100599.82;;;18.41;90.54
37304;BME280;23188;51.188;16.374;2022-10-31T15:59:19;100603.55;;;18.16;91.99
37304;BME280;23188;51.188;16.374;2022-10-31T16:03:30;100603.50;;;17.95;92.88
37304;BME280;23188;51.188;16.374;2022-10-31T16:07:32;100600.45;;;17.85;93.97
37304;BME280;23188;51.188;16.374;2022-10-31T16:11:49;100602.80;;;17.76;94.95
37304;BME280;23188;51.188;16.374;2022-10-31T16:16:01;100601.12;;;17.71;95.03
37304;BME280;23188;51.188;16.374;2022-10-31T16:20:25;100607.13;;;17.56;96.02
37304;BME280;23188;51.188;16.374;2022-10-31T16:24:32;100605.41;;;17.47;96.95
37304;BME280;23188;51.188;16.374;2022-10-31T16:28:35;100604.39;;;17.44;96.81
37304;BME280;23188;51.188;16.374;2022-10-31T16:32:57;100601.17;;;17.36;97.08
37304;BME280;23188;51.188;16.374;2022-10-31T16:37:02;100604.50;;;17.22;95.95
37304;BME280;23188;51.188;16.374;2022-10-31T16:41:09;100605.92;;;17.08;95.50
37304;BME280;23188;51.188;16.374;2022-10-31T16:45:17;100604.17;;;16.94;96.54
37304;BME280;23188;51.188;16.374;2022-10-31T16:49:19;100604.75;;;16.80;96.63
37304;BME280;23188;51.188;16.374;2022-10-31T16:53:21;100605.83;;;16.61;95.04
37304;BME280;23188;51.188;16.374;2022-10-31T16:57:27;100599.48;;;16.44;97.14
37304;BME280;23188;51.188;16.374;2022-10-31T17:01:32;100604.94;;;16.34;98.25
37304;BME280;23188;51.188;16.374;2022-10-31T17:05:36;100609.74;;;16.26;98.25
37304;BME280;23188;51.188;16.374;2022-10-31T17:09:50;100601.95;;;16.15;99.27
37304;BME280;23188;51.188;16.374;2022-10-31T17:13:53;100602.69;;;16.03;99.52
37304;BME280;23188;51.188;16.374;2022-10-31T17:17:54;100607.59;;;15.89;100.00
37304;BME280;23188;51.188;16.374;2022-10-31T17:22:02;100609.00;;;15.83;100.00
37304;BME280;23188;51.188;16.374;2022-10-31T17:26:03;100607.69;;;15.88;100.00
37304;BME280;23188;51.188;16.374;2022-10-31T17:30:07;100601.54;;;15.73;100.00
37304;BME280;23188;51.188;16.374;2022-10-31T17:34:09;100598.85;;;15.59;100.00
37304;BME280;23188;51.188;16.374;2022-10-31T17:38:12;100607.91;;;15.44;100.00
37304;BME280;23188;51.188;16.374;2022-10-31T17:42:17;100606.84;;;15.37;100.00
37304;BME280;23188;51.188;16.374;2022-10-31T17:46:21;100609.30;;;15.34;100.00
37304;BME280;23188;51.188;16.374;2022-10-31T17:50:29;100604.80;;;15.35;100.00
37304;BME280;23188;51.188;16.374;2022-10-31T17:54:38;100601.91;;;15.46;100.00
37304;BME280;23188;51.188;16.374;2022-10-31T17:58:45;100604.55;;;15.42;100.00
37304;BME280;23188;51.188;16.374;2022-10-31T18:02:46;100605.89;;;15.14;100.00
37304;BME280;23188;51.188;16.374;2022-10-31T18:06:48;100600.66;;;14.98;100.00
37304;BME280;23188;51.188;16.374;2022-10-31T18:10:55;100605.28;;;14.82;100.00
37304;BME280;23188;51.188;16.374;2022-10-31T18:15:04;100605.82;;;14.72;100.00
37304;BME280;23188;51.188;16.374;2022-10-31T18:19:06;100594.52;;;14.68;100.00
37304;BME280;23188;51.188;16.374;2022-10-31T18:23:08;100600.48;;;14.52;100.00
37304;BME280;23188;51.188;16.374;2022-10-31T18:27:09;100592.47;;;14.42;100.00
37304;BME280;23188;51.188;16.374;2022-10-31T18:31:11;100594.80;;;14.41;100.00
37304;BME280;23188;51.188;16.374;2022-10-31T18:35:12;100593.15;;;14.54;100.00
37304;BME280;23188;51.188;16.374;2022-10-31T18:39:14;100592.83;;;14.67;100.00
37304;BME280;23188;51.188;16.374;2022-10-31T18:43:16;100593.82;;;14.76;100.00
37304;BME280;23188;51.188;16.374;2022-10-31T18:47:17;100601.12;;;14.84;100.00
37304;BME280;23188;51.188;16.374;2022-10-31T18:51:19;100601.05;;;14.90;100.00
37304;BME280;23188;51.188;16.374;2022-10-31T18:55:24;100595.61;;;14.95;100.00
37304;BME280;23188;51.188;16.374;2022-10-31T18:59:25;100588.74;;;14.97;100.00
37304;BME280;23188;51.188;16.374;2022-10-31T19:03:27;100587.84;;;14.92;100.00
37304;BME280;23188;51.188;16.374;2022-10-31T19:07:28;100596.17;;;14.89;100.00
37304;BME280;23188;51.188;16.374;2022-10-31T19:11:31;100594.53;;;14.92;100.00
37304;BME280;23188;51.188;16.374;2022-10-31T19:15:34;100590.17;;;14.91;100.00
37304;BME280;23188;51.188;16.374;2022-10-31T19:19:37;100572.96;;;14.80;100.00
37304;BME280;23188;51.188;16.374;2022-10-31T19:23:39;100564.48;;;14.51;100.00
37304;BME280;23188;51.188;16.374;2022-10-31T19:27:41;100572.55;;;14.31;100.00
37304;BME280;23188;51.188;16.374;2022-10-31T19:31:42;100562.76;;;14.36;100.00
37304;BME280;23188;51.188;16.374;2022-10-31T19:35:44;100558.76;;;14.26;100.00
37304;BME280;23188;51.188;16.374;2022-10-31T19:39:45;100546.80;;;14.10;100.00
37304;BME280;23188;51.188;16.374;2022-10-31T19:43:47;100547.96;;;13.98;100.00
37304;BME280;23188;51.188;16.374;2022-10-31T19:47:49;100542.74;;;13.96;100.00
37304;BME280;23188;51.188;16.374;2022-10-31T19:51:50;100531.47;;;14.03;100.00
37304;BME280;23188;51.188;16.374;2022-10-31T19:55:51;100533.38;;;14.06;100.00
37304;BME280;23188;51.188;16.374;2022-10-31T19:59:52;100535.12;;;14.11;100.00
37304;BME280;23188;51.188;16.374;2022-10-31T20:03:58;100538.02;;;14.04;100.00
37304;BME280;23188;51.188;16.374;2022-10-31T20:12:05;100530.66;;;13.73;100.00
37304;BME280;23188;51.188;16.374;2022-10-31T20:16:10;100527.40;;;13.59;100.00
37304;BME280;23188;51.188;16.374;2022-10-31T20:20:13;100526.00;;;13.55;100.00
37304;BME280;23188;51.188;16.374;2022-10-31T20:24:14;100522.61;;;13.43;100.00
37304;BME280;23188;51.188;16.374;2022-10-31T20:28:18;100516.88;;;13.32;100.00
37304;BME280;23188;51.188;16.374;2022-10-31T20:32:20;100520.17;;;13.30;100.00
37304;BME280;23188;51.188;16.374;2022-10-31T20:36:27;100519.48;;;13.38;100.00
37304;BME280;23188;51.188;16.374;2022-10-31T20:40:31;100527.32;;;13.45;100.00
37304;BME280;23188;51.188;16.374;2022-10-31T20:44:32;100516.00;;;13.47;100.00
37304;BME280;23188;51.188;16.374;2022-10-31T20:48:34;100513.75;;;13.52;100.00
37304;BME280;23188;51.188;16.374;2022-10-31T20:52:36;100518.20;;;13.58;100.00
37304;BME280;23188;51.188;16.374;2022-10-31T20:56:42;100523.11;;;13.72;100.00
37304;BME280;23188;51.188;16.374;2022-10-31T21:00:43;100513.91;;;13.80;100.00
37304;BME280;23188;51.188;16.374;2022-10-31T21:04:45;100500.67;;;13.79;100.00
37304;BME280;23188;51.188;16.374;2022-10-31T21:08:46;100499.67;;;13.90;100.00
37304;BME280;23188;51.188;16.374;2022-10-31T21:12:47;100503.67;;;13.99;100.00
37304;BME280;23188;51.188;16.374;2022-10-31T21:16:48;100503.38;;;14.03;100.00
37304;BME280;23188;51.188;16.374;2022-10-31T21:20:50;100507.28;;;13.94;100.00
37304;BME280;23188;51.188;16.374;2022-10-31T21:24:52;100511.07;;;13.92;100.00
37304;BME280;23188;51.188;16.374;2022-10-31T21:28:56;100503.05;;;13.82;100.00
37304;BME280;23188;51.188;16.374;2022-10-31T21:32:58;100506.08;;;13.73;100.00
37304;BME280;23188;51.188;16.374;2022-10-31T21:36:59;100504.49;;;13.76;100.00
37304;BME280;23188;51.188;16.374;2022-10-31T21:41:07;100505.89;;;13.70;100.00
37304;BME280;23188;51.188;16.374;2022-10-31T21:45:10;100502.42;;;13.74;100.00
37304;BME280;23188;51.188;16.374;2022-10-31T21:53:28;100480.83;;;13.91;100.00
37304;BME280;23188;51.188;16.374;2022-10-31T21:57:49;100486.86;;;14.03;100.00
37304;BME280;23188;51.188;16.374;2022-10-31T22:01:51;100486.10;;;13.97;100.00
37304;BME280;23188;51.188;16.374;2022-10-31T22:05:55;100482.44;;;13.98;100.00
37304;BME280;23188;51.188;16.374;2022-10-31T22:10:00;100473.97;;;14.03;100.00
37304;BME280;23188;51.188;16.374;2022-10-31T22:14:02;100474.53;;;14.06;100.00
37304;BME280;23188;51.188;16.374;2022-10-31T22:18:04;100472.15;;;14.03;100.00
37304;BME280;23188;51.188;16.374;2022-10-31T22:22:10;100462.49;;;14.06;100.00
37304;BME280;23188;51.188;16.374;2022-10-31T22:26:14;100461.08;;;14.12;100.00
37304;BME280;23188;51.188;16.374;2022-10-31T22:30:16;100459.58;;;14.13;100.00
37304;BME280;23188;51.188;16.374;2022-10-31T22:34:20;100455.70;;;14.22;100.00
37304;BME280;23188;51.188;16.374;2022-10-31T22:38:24;100451.17;;;14.22;100.00
37304;BME280;23188;51.188;16.374;2022-10-31T22:42:25;100439.78;;;14.20;100.00
37304;BME280;23188;51.188;16.374;2022-10-31T22:46:29;100445.33;;;14.09;100.00
37304;BME280;23188;51.188;16.374;2022-10-31T22:59:19;100421.96;;;13.77;100.00
37304;BME280;23188;51.188;16.374;2022-10-31T23:03:22;100416.41;;;13.65;100.00
37304;BME280;23188;51.188;16.374;2022-10-31T23:07:24;100415.44;;;13.56;100.00
37304;BME280;23188;51.188;16.374;2022-10-31T23:11:28;100408.00;;;13.50;100.00
37304;BME280;23188;51.188;16.374;2022-10-31T23:24:50;100399.04;;;13.25;100.00
37304;BME280;23188;51.188;16.374;2022-10-31T23:28:51;100393.56;;;13.17;100.00
37304;BME280;23188;51.188;16.374;2022-10-31T23:32:53;100384.62;;;13.12;100.00
37304;BME280;23188;51.188;16.374;2022-10-31T23:36:55;100372.27;;;13.02;100.00
37304;BME280;23188;51.188;16.374;2022-10-31T23:40:56;100371.74;;;12.92;100.00
37304;BME280;23188;51.188;16.374;2022-10-31T23:44:57;100363.38;;;12.91;100.00
37304;BME280;23188;51.188;16.374;2022-10-31T23:48:59;100358.27;;;12.94;100.00
37304;BME280;23188;51.188;16.374;2022-10-31T23:53:00;100363.96;;;12.95;100.00
37304;BME280;23188;51.188;16.374;2022-10-31T23:57:02;100361.70;;;13.00;100.00
